Time;durP1;ratioP1;P1;durP2;ratioP2;P2;SDS_P1;SDS_P2;PMS_P1;PMS_P2;Temp;Humidity;BMP_temperature;BMP_pressure;BME280_temperature;BME280_humidity;BME280_pressure;Samples;Min_cycle;Max_cycle;Signal;HPM_P1;HPM_P2
2023/07/24 00:01:28;;;;;;;23.77;22.97;;;25.40;99.90;;;;;;5095224;28;20500;-63
2023/07/24 00:03:56;;;;;;;25.63;24.73;;;25.30;99.90;;;;;;5095123;28;20533;-61
2023/07/24 00:06:23;;;;;;;24.70;23.60;;;25.30;99.90;;;;;;5095035;28;20446;-62
2023/07/24 00:08:49;;;;;;;24.07;23.27;;;25.20;99.90;;;;;;5095029;28;20493;-62
2023/07/24 00:11:16;;;;;;;24.90;24.00;;;25.20;99.90;;;;;;5107218;28;20489;-62
2023/07/24 00:13:43;;;;;;;23.93;23.13;;;25.10;99.90;;;;;;5115399;28;21053;-62
2023/07/24 00:16:11;;;;;;;23.47;22.43;;;25.10;99.90;;;;;;5115266;28;20476;-63
2023/07/24 00:18:38;;;;;;;24.60;23.70;;;25.00;99.90;;;;;;5115269;28;20497;-62
2023/07/24 00:21:05;;;;;;;23.60;22.70;;;25.00;99.90;;;;;;5101694;28;20486;-62
2023/07/24 00:23:32;;;;;;;23.60;22.80;;;25.00;99.90;;;;;;5095008;28;20478;-62
2023/07/24 00:25:59;;;;;;;24.00;23.20;;;25.00;99.90;;;;;;5094654;28;20484;-60
2023/07/24 00:28:26;;;;;;;23.83;23.03;;;25.00;99.90;;;;;;5094577;28;21023;-62
2023/07/24 00:30:53;;;;;;;24.67;23.27;;;24.90;99.90;;;;;;5105831;28;21014;-62
2023/07/24 00:33:21;;;;;;;25.17;24.27;;;24.90;99.90;;;;;;5115105;28;20524;-62
2023/07/24 00:35:48;;;;;;;26.40;25.50;;;24.90;99.90;;;;;;5114947;28;20564;-62
2023/07/24 00:38:15;;;;;;;23.23;22.43;;;24.80;99.90;;;;;;5114728;28;20547;-61
2023/07/24 00:40:42;;;;;;;25.20;24.30;;;24.80;99.90;;;;;;5104960;28;20530;-62
2023/07/24 00:43:09;;;;;;;23.30;22.50;;;24.80;99.90;;;;;;5094546;28;21019;-62
2023/07/24 00:45:36;;;;;;;24.70;23.80;;;24.70;99.90;;;;;;5094457;28;20999;-62
2023/07/24 00:48:03;;;;;;;24.23;23.23;;;24.70;99.90;;;;;;5095205;28;20497;-62
2023/07/24 00:50:31;;;;;;;22.63;21.73;;;24.70;99.90;;;;;;5114735;28;20533;-61
2023/07/24 00:52:59;;;;;;;23.50;22.60;;;24.70;99.90;;;;;;5114660;28;20477;-62
2023/07/24 00:55:26;;;;;;;22.93;22.13;;;24.70;99.90;;;;;;5114506;28;20509;-61
2023/07/24 00:57:53;;;;;;;22.90;22.00;;;24.60;99.90;;;;;;5113967;28;20508;-61
2023/07/24 01:00:20;;;;;;;23.00;22.20;;;24.70;99.90;;;;;;5114070;28;20540;-61
2023/07/24 01:02:47;;;;;;;22.60;21.80;;;24.60;99.90;;;;;;5114404;28;20864;-62
2023/07/24 01:05:15;;;;;;;22.50;21.70;;;24.60;99.90;;;;;;5114522;28;20469;-62
2023/07/24 01:07:43;;;;;;;22.43;21.70;;;24.60;99.90;;;;;;5114123;28;20467;-62
2023/07/24 01:10:10;;;;;;;24.43;23.63;;;24.60;99.90;;;;;;5097386;28;20797;-62
2023/07/24 01:12:44;;;;;;;22.27;21.47;;;24.50;99.90;;;;;;5114425;28;20445;-62
2023/07/24 01:15:16;;;;;;;23.33;22.53;;;24.50;99.90;;;;;;5114219;28;20568;-62
2023/07/24 01:17:48;;;;;;;23.90;22.77;;;24.50;99.90;;;;;;5114044;28;20548;-62
2023/07/24 01:20:18;;;;;;;24.30;23.40;;;24.50;99.90;;;;;;5094776;28;21037;-63
2023/07/24 01:22:58;;;;;;;24.37;23.47;;;24.50;99.90;;;;;;5093671;28;20450;-62
2023/07/24 01:25:35;;;;;;;24.20;23.30;;;24.50;99.90;;;;;;5093659;28;20442;-62
2023/07/24 01:28:08;;;;;;;24.03;23.23;;;24.50;99.90;;;;;;5093758;28;20466;-62
2023/07/24 01:30:35;;;;;;;22.93;22.13;;;24.50;99.90;;;;;;5093642;28;20584;-61
2023/07/24 01:33:02;;;;;;;24.40;23.50;;;24.40;99.90;;;;;;5094691;28;20521;-62
2023/07/24 01:35:29;;;;;;;22.60;21.80;;;24.40;99.90;;;;;;5093489;28;20585;-61
2023/07/24 01:37:58;;;;;;;22.50;21.70;;;24.40;99.90;;;;;;5093169;28;20549;-62
2023/07/24 01:40:25;;;;;;;24.40;23.50;;;24.40;99.90;;;;;;5105891;28;20477;-62
2023/07/24 01:42:52;;;;;;;23.20;22.40;;;24.40;99.90;;;;;;5113557;28;20473;-62
2023/07/24 01:45:20;;;;;;;28.30;27.20;;;24.40;99.90;;;;;;5098111;28;20441;-62
2023/07/24 01:47:47;;;;;;;22.73;22.03;;;24.40;99.90;;;;;;5113333;28;20876;-62
2023/07/24 01:50:14;;;;;;;23.90;22.67;;;24.40;99.90;;;;;;5113574;28;20869;-63
2023/07/24 01:52:41;;;;;;;23.10;22.03;;;24.40;99.90;;;;;;5111869;28;20536;-62
2023/07/24 01:55:09;;;;;;;22.67;21.90;;;24.40;99.90;;;;;;5113376;28;20571;-62
2023/07/24 01:57:35;;;;;;;23.40;22.40;;;24.30;99.90;;;;;;5113049;28;20468;-62
2023/07/24 02:00:02;;;;;;;22.70;21.90;;;24.30;99.90;;;;;;5113417;28;20982;-62
2023/07/24 02:02:31;;;;;;;24.07;23.17;;;24.30;99.90;;;;;;5096880;28;20526;-62
2023/07/24 02:04:57;;;;;;;23.73;22.77;;;24.30;99.90;;;;;;5092997;28;20645;-62
2023/07/24 02:07:24;;;;;;;23.03;22.23;;;24.30;99.90;;;;;;5092551;28;20533;-62
2023/07/24 02:09:51;;;;;;;24.43;23.53;;;24.30;99.90;;;;;;5092841;28;20844;-62
2023/07/24 02:12:18;;;;;;;24.70;23.83;;;24.30;99.90;;;;;;5106711;28;20881;-62
2023/07/24 02:14:48;;;;;;;24.30;23.40;;;24.30;99.90;;;;;;5113030;28;20900;-62
2023/07/24 02:17:15;;;;;;;24.50;23.60;;;24.30;99.90;;;;;;5112947;28;20444;-63
2023/07/24 02:19:43;;;;;;;23.43;22.40;;;24.20;99.90;;;;;;5113041;28;20532;-63
2023/07/24 02:22:10;;;;;;;22.70;21.90;;;24.30;99.90;;;;;;5100032;28;20485;-62
2023/07/24 02:24:36;;;;;;;23.83;22.93;;;24.30;99.90;;;;;;5092581;28;20872;-62
2023/07/24 02:27:05;;;;;;;24.33;23.43;;;24.30;99.90;;;;;;5092284;28;20526;-62
2023/07/24 02:29:32;;;;;;;24.90;24.00;;;24.20;99.90;;;;;;5092429;28;20891;-61
2023/07/24 02:32:00;;;;;;;24.83;23.83;;;24.20;99.90;;;;;;5103179;28;20532;-62
2023/07/24 02:34:28;;;;;;;25.83;24.83;;;24.20;99.90;;;;;;5112661;28;20564;-62
2023/07/24 02:36:56;;;;;;;25.30;24.40;;;24.20;99.90;;;;;;5112466;28;20934;-61
2023/07/24 02:39:23;;;;;;;24.63;23.73;;;24.20;99.90;;;;;;5112549;28;20493;-62
2023/07/24 02:41:50;;;;;;;23.23;22.37;;;24.20;99.90;;;;;;5102984;28;20481;-62
2023/07/24 02:44:17;;;;;;;24.43;23.53;;;24.20;99.90;;;;;;5092298;28;20478;-62
2023/07/24 02:46:44;;;;;;;24.13;23.23;;;24.20;99.90;;;;;;5091977;28;20525;-62
2023/07/24 02:49:10;;;;;;;25.23;24.30;;;24.20;99.90;;;;;;5091951;28;20497;-62
2023/07/24 02:51:37;;;;;;;24.17;23.17;;;24.20;99.90;;;;;;5093250;28;20482;-62
2023/07/24 02:54:06;;;;;;;23.30;22.47;;;24.20;99.90;;;;;;5092083;28;20485;-62
2023/07/24 02:56:33;;;;;;;23.73;22.93;;;24.20;99.90;;;;;;5091810;28;20489;-62
2023/07/24 02:58:59;;;;;;;23.60;22.70;;;24.10;99.90;;;;;;5105919;22;20515;-60
2023/07/24 03:01:26;;;;;;;24.70;23.83;;;24.10;99.90;;;;;;5075429;28;20479;-60
2023/07/24 03:03:53;;;;;;;23.37;22.37;;;24.20;99.90;;;;;;5071630;28;20593;-60
2023/07/24 03:06:20;;;;;;;24.10;23.10;;;24.10;99.90;;;;;;5071681;28;20447;-60
2023/07/24 03:08:47;;;;;;;25.40;24.40;;;24.10;99.90;;;;;;5071479;28;20859;-59
2023/07/24 03:11:15;;;;;;;23.90;22.97;;;24.10;99.90;;;;;;5072639;28;20534;-60
2023/07/24 03:13:43;;;;;;;24.93;23.83;;;24.10;99.90;;;;;;5091678;28;20477;-60
2023/07/24 03:16:09;;;;;;;24.70;23.80;;;24.10;99.90;;;;;;5090661;28;20489;-59
2023/07/24 03:18:36;;;;;;;23.50;22.70;;;24.10;99.90;;;;;;5091655;28;20553;-60
2023/07/24 03:21:04;;;;;;;24.70;23.80;;;24.10;99.90;;;;;;5089921;28;20532;-60
2023/07/24 03:23:31;;;;;;;24.00;22.90;;;24.10;99.90;;;;;;5091592;28;20442;-59
2023/07/24 03:25:58;;;;;;;24.60;23.60;;;24.10;99.90;;;;;;5091608;28;20869;-59
2023/07/24 03:28:26;;;;;;;27.77;26.77;;;24.10;99.90;;;;;;5091333;28;20891;-60
2023/07/24 03:30:53;;;;;;;24.80;23.93;;;24.10;99.90;;;;;;5077316;28;20448;-60
2023/07/24 03:33:21;;;;;;;26.07;24.97;;;24.10;99.90;;;;;;5071355;28;20478;-58
2023/07/24 03:35:48;;;;;;;27.10;26.10;;;24.00;99.90;;;;;;5071218;28;20565;-58
2023/07/24 03:38:14;;;;;;;23.80;22.90;;;24.00;99.90;;;;;;5071016;28;20592;-58
2023/07/24 03:40:42;;;;;;;25.20;24.23;;;24.00;99.90;;;;;;5083151;28;20525;-60
2023/07/24 03:43:08;;;;;;;25.47;24.50;;;24.00;99.90;;;;;;5091309;28;20450;-59
2023/07/24 03:45:37;;;;;;;25.90;24.67;;;24.00;99.90;;;;;;5091450;28;20859;-60
2023/07/24 03:48:04;;;;;;;25.10;24.17;;;24.00;99.90;;;;;;5091133;28;20470;-58
2023/07/24 03:50:31;;;;;;;24.80;23.70;;;24.00;99.90;;;;;;5080777;28;20475;-59
2023/07/24 03:52:58;;;;;;;24.50;23.60;;;24.00;99.90;;;;;;5071176;28;20444;-60
2023/07/24 03:55:25;;;;;;;24.40;23.37;;;24.00;99.90;;;;;;5071045;28;20570;-60
2023/07/24 03:57:52;;;;;;;24.07;23.07;;;24.00;99.90;;;;;;5072370;28;20443;-60
2023/07/24 04:00:19;;;;;;;26.50;25.30;;;24.00;99.90;;;;;;5091319;28;20613;-57
2023/07/24 04:02:48;;;;;;;29.93;28.63;;;24.00;99.90;;;;;;5091196;28;20792;-59
2023/07/24 04:05:15;;;;;;;29.60;28.50;;;23.90;99.90;;;;;;5091123;28;20521;-56
2023/07/24 04:07:42;;;;;;;29.83;28.83;;;23.90;99.90;;;;;;5081753;28;20438;-58
2023/07/24 04:10:09;;;;;;;33.77;32.47;;;24.00;99.90;;;;;;5091250;28;20537;-53
2023/07/24 04:12:36;;;;;;;31.10;29.80;;;24.00;99.90;;;;;;5091103;28;20481;-59
2023/07/24 04:15:03;;;;;;;29.37;28.10;;;23.90;99.90;;;;;;5091099;28;21071;-56
2023/07/24 04:17:30;;;;;;;30.53;29.40;;;23.90;99.90;;;;;;5078278;28;20509;-58
2023/07/24 04:19:58;;;;;;;31.33;30.03;;;24.00;99.90;;;;;;5070769;28;20502;-56
2023/07/24 04:22:26;;;;;;;29.10;28.00;;;24.00;99.90;;;;;;5070839;28;21020;-60
2023/07/24 04:24:53;;;;;;;30.07;28.87;;;24.00;99.90;;;;;;5070840;28;20448;-53
2023/07/24 04:27:20;;;;;;;30.47;29.20;;;23.90;99.90;;;;;;5084083;28;20488;-58
2023/07/24 04:29:46;;;;;;;27.83;26.43;;;23.90;99.90;;;;;;5094942;28;20561;-57
2023/07/24 04:32:13;;;;;;;28.40;27.30;;;23.90;99.90;;;;;;5094730;28;20477;-56
2023/07/24 04:34:40;;;;;;;31.67;30.03;;;23.90;99.90;;;;;;5094650;28;20478;-58
2023/07/24 04:37:08;;;;;;;27.67;26.03;;;23.90;99.90;;;;;;5085266;28;20544;-55
2023/07/24 04:39:36;;;;;;;32.27;30.30;;;23.90;99.90;;;;;;5074272;28;20785;-54
2023/07/24 04:42:03;;;;;;;32.10;30.60;;;23.90;99.90;;;;;;5074307;28;20483;-56
2023/07/24 04:44:31;;;;;;;30.97;29.50;;;23.90;99.90;;;;;;5083757;28;20913;-53
2023/07/24 04:46:58;;;;;;;30.90;29.23;;;23.90;99.90;;;;;;5075464;28;20534;-54
2023/07/24 04:49:25;;;;;;;32.77;31.30;;;23.80;99.90;;;;;;5074029;28;20856;-53
2023/07/24 04:51:52;;;;;;;29.80;28.00;;;23.90;99.90;;;;;;5074127;28;20486;-56
2023/07/24 04:54:20;;;;;;;31.00;29.40;;;23.90;99.90;;;;;;5073957;28;20850;-57
2023/07/24 04:56:47;;;;;;;29.80;28.20;;;23.90;99.90;;;;;;5073845;28;20479;-56
2023/07/24 04:59:14;;;;;;;31.97;30.50;;;23.90;99.90;;;;;;5073753;28;20506;-57
2023/07/24 05:01:41;;;;;;;29.37;27.97;;;23.90;99.90;;;;;;5073957;28;20475;-58
2023/07/24 05:04:08;;;;;;;31.23;29.50;;;23.90;99.90;;;;;;5073841;28;20466;-56
2023/07/24 05:06:37;;;;;;;31.70;30.40;;;23.90;99.90;;;;;;5073682;28;20475;-57
2023/07/24 05:09:04;;;;;;;31.70;30.23;;;23.90;99.90;;;;;;5073804;28;20474;-57
2023/07/24 05:11:32;;;;;;;29.43;27.33;;;23.90;99.90;;;;;;5073700;28;20534;-59
2023/07/24 05:13:59;;;;;;;29.57;28.30;;;23.90;99.90;;;;;;5073810;28;20871;-58
2023/07/24 05:16:26;;;;;;;31.27;30.07;;;23.90;99.90;;;;;;5073369;28;20590;-58
2023/07/24 05:18:52;;;;;;;29.20;28.00;;;23.90;99.90;;;;;;5073519;28;20503;-59
2023/07/24 05:21:19;;;;;;;30.17;28.77;;;23.90;99.90;;;;;;5073663;28;20467;-58
2023/07/24 05:23:46;;;;;;;29.70;28.30;;;23.90;99.90;;;;;;5073452;28;20535;-56
2023/07/24 05:26:13;;;;;;;27.37;26.10;;;23.90;99.90;;;;;;5073307;28;20478;-57
2023/07/24 05:28:41;;;;;;;28.60;27.50;;;23.90;99.90;;;;;;5073332;28;20459;-57
2023/07/24 05:31:08;;;;;;;28.87;27.57;;;23.90;99.90;;;;;;5073263;28;20489;-55
2023/07/24 05:33:35;;;;;;;29.33;27.73;;;23.90;99.90;;;;;;5073270;28;20808;-58
2023/07/24 05:36:04;;;;;;;29.27;28.07;;;23.90;99.90;;;;;;5073021;28;20521;-55
2023/07/24 05:38:31;;;;;;;30.03;28.53;;;23.90;99.90;;;;;;5072108;28;20538;-58
2023/07/24 05:40:59;;;;;;;28.97;27.77;;;23.90;99.90;;;;;;5073222;28;20526;-55
2023/07/24 05:43:26;;;;;;;30.40;29.10;;;23.90;99.90;;;;;;5073028;28;20542;-56
2023/07/24 05:45:55;;;;;;;30.50;29.13;;;23.90;99.90;;;;;;5073073;28;20590;-57
2023/07/24 05:48:22;;;;;;;28.93;27.73;;;23.90;99.90;;;;;;5072889;28;20546;-57
2023/07/24 05:50:49;;;;;;;32.43;30.77;;;23.90;99.90;;;;;;5072990;28;20526;-53
2023/07/24 05:53:17;;;;;;;30.57;29.17;;;23.90;99.90;;;;;;5072907;28;20478;-54
2023/07/24 05:55:43;;;;;;;30.97;29.70;;;23.90;99.90;;;;;;5072783;28;21093;-57
2023/07/24 05:58:11;;;;;;;30.13;28.83;;;23.90;99.90;;;;;;5072416;28;20532;-53
2023/07/24 06:00:38;;;;;;;30.47;29.17;;;23.90;99.90;;;;;;5072748;28;20802;-56
2023/07/24 06:03:06;;;;;;;32.03;30.73;;;23.90;99.90;;;;;;5072807;28;20484;-52
2023/07/24 06:05:33;;;;;;;30.97;29.63;;;23.90;99.90;;;;;;5072613;28;20622;-56
2023/07/24 06:08:00;;;;;;;32.53;31.13;;;23.90;99.90;;;;;;5072418;28;20509;-57
2023/07/24 06:10:26;;;;;;;30.77;29.67;;;23.90;99.90;;;;;;5072518;28;20526;-55
2023/07/24 06:12:53;;;;;;;30.90;29.50;;;23.90;99.90;;;;;;5072563;28;20530;-51
2023/07/24 06:15:20;;;;;;;33.77;32.37;;;23.90;99.90;;;;;;5072561;28;20537;-54
2023/07/24 06:17:47;;;;;;;30.50;29.10;;;23.90;99.90;;;;;;5072060;28;20446;-56
2023/07/24 06:20:15;;;;;;;31.70;30.30;;;23.90;99.90;;;;;;5072403;28;20470;-55
2023/07/24 06:22:42;;;;;;;31.60;30.37;;;23.90;99.90;;;;;;5072300;28;20965;-55
2023/07/24 06:25:09;;;;;;;32.97;31.17;;;23.90;99.90;;;;;;5072285;28;20447;-56
2023/07/24 06:27:36;;;;;;;34.90;33.53;;;23.90;99.90;;;;;;5071933;28;20475;-59
2023/07/24 06:30:03;;;;;;;33.17;31.77;;;23.90;99.90;;;;;;5072104;28;20499;-58
2023/07/24 06:32:30;;;;;;;32.87;31.47;;;23.90;99.90;;;;;;5072071;28;20534;-56
2023/07/24 06:34:57;;;;;;;33.03;31.43;;;23.80;99.90;;;;;;5072351;28;20533;-56
2023/07/24 06:37:25;;;;;;;31.83;30.60;;;23.80;99.90;;;;;;5071904;28;20569;-56
2023/07/24 06:39:52;;;;;;;33.40;31.90;;;23.80;99.90;;;;;;5071971;28;20550;-53
2023/07/24 06:42:19;;;;;;;31.17;29.97;;;23.90;99.90;;;;;;5071944;28;20526;-57
2023/07/24 06:44:46;;;;;;;31.20;29.90;;;23.90;99.90;;;;;;5071915;28;20539;-53
2023/07/24 06:47:13;;;;;;;31.33;30.10;;;23.80;99.90;;;;;;5071707;28;20515;-57
2023/07/24 06:49:40;;;;;;;32.50;31.30;;;23.90;99.90;;;;;;5071644;28;20557;-55
2023/07/24 06:52:07;;;;;;;30.00;28.70;;;23.90;99.90;;;;;;5071931;28;20530;-52
2023/07/24 06:54:35;;;;;;;31.50;30.20;;;23.90;99.90;;;;;;5071743;28;20531;-56
2023/07/24 06:57:02;;;;;;;32.33;31.10;;;23.90;99.90;;;;;;5071517;28;20566;-55
2023/07/24 06:59:30;;;;;;;32.70;31.23;;;23.90;99.90;;;;;;5071345;28;20506;-57
2023/07/24 07:01:56;;;;;;;30.90;29.70;;;23.90;99.90;;;;;;5071618;28;20829;-55
2023/07/24 07:04:23;;;;;;;33.47;32.17;;;23.80;99.90;;;;;;5071683;28;20873;-55
2023/07/24 07:06:50;;;;;;;32.80;31.40;;;23.90;99.90;;;;;;5071510;28;20529;-53
2023/07/24 07:09:17;;;;;;;29.93;28.63;;;23.90;99.90;;;;;;5071601;28;20506;-57
2023/07/24 07:11:45;;;;;;;29.47;27.97;;;23.80;99.90;;;;;;5071558;28;20530;-57
2023/07/24 07:14:12;;;;;;;30.27;29.17;;;23.90;99.90;;;;;;5071594;28;20530;-56
2023/07/24 07:16:40;;;;;;;30.23;29.03;;;23.80;99.90;;;;;;5071204;28;20486;-57
2023/07/24 07:19:09;;;;;;;30.60;29.30;;;23.90;99.90;;;;;;5071445;28;20529;-55
2023/07/24 07:21:36;;;;;;;29.60;28.40;;;23.80;99.90;;;;;;5071386;28;20458;-57
2023/07/24 07:24:03;;;;;;;31.93;30.20;;;23.90;99.90;;;;;;5071445;28;20531;-53
2023/07/24 07:26:30;;;;;;;32.33;31.13;;;23.90;99.90;;;;;;5071185;28;20478;-57
2023/07/24 07:28:58;;;;;;;27.60;26.40;;;23.80;99.90;;;;;;5071314;28;20467;-51
2023/07/24 07:31:25;;;;;;;28.93;27.83;;;23.80;99.90;;;;;;5071301;28;20533;-55
2023/07/24 07:33:52;;;;;;;33.03;31.80;;;23.90;99.90;;;;;;5071378;28;20467;-57
2023/07/24 07:36:19;;;;;;;29.97;28.77;;;23.90;99.90;;;;;;5071141;28;20582;-58
2023/07/24 07:38:45;;;;;;;34.10;32.60;;;23.90;99.90;;;;;;5071155;28;20558;-55
2023/07/24 07:41:12;;;;;;;30.20;29.10;;;23.80;99.90;;;;;;5071252;28;20539;-57
2023/07/24 07:43:39;;;;;;;31.37;29.97;;;23.80;99.90;;;;;;5071282;28;20526;-54
2023/07/24 07:46:07;;;;;;;29.17;28.07;;;23.80;99.90;;;;;;5071047;28;20530;-52
2023/07/24 07:48:34;;;;;;;29.60;28.50;;;23.90;99.90;;;;;;5071174;28;20555;-57
2023/07/24 07:51:01;;;;;;;30.70;29.50;;;23.90;99.90;;;;;;5071217;28;21022;-53
2023/07/24 07:53:28;;;;;;;29.60;28.40;;;23.90;99.90;;;;;;5071109;28;20530;-59
2023/07/24 07:55:57;;;;;;;31.07;29.80;;;23.80;99.90;;;;;;5071063;28;20910;-54
2023/07/24 07:58:24;;;;;;;31.60;30.10;;;23.80;99.90;;;;;;5070830;28;20481;-55
2023/07/24 08:00:51;;;;;;;28.23;26.93;;;23.90;99.90;;;;;;5071506;28;20486;-53
2023/07/24 08:03:19;;;;;;;28.73;27.63;;;23.90;99.90;;;;;;5075034;28;20530;-54
2023/07/24 08:05:46;;;;;;;30.60;29.00;;;23.80;99.90;;;;;;5074931;28;20533;-51
2023/07/24 08:08:13;;;;;;;27.83;26.73;;;23.80;99.90;;;;;;5074631;28;20494;-55
2023/07/24 08:10:41;;;;;;;27.97;26.87;;;23.80;99.90;;;;;;5074938;28;20470;-57
2023/07/24 08:13:08;;;;;;;30.83;29.33;;;23.80;99.90;;;;;;5074775;28;20526;-57
2023/07/24 08:15:36;;;;;;;28.90;27.90;;;23.80;99.90;;;;;;5074734;28;20439;-58
2023/07/24 08:18:04;;;;;;;30.23;29.03;;;23.80;99.90;;;;;;5074393;28;20992;-54
2023/07/24 08:20:35;;;;;;;29.27;28.17;;;23.80;99.90;;;;;;5074654;28;20791;-51
2023/07/24 08:23:02;;;;;;;30.57;29.33;;;23.80;99.90;;;;;;5074794;28;20474;-59
2023/07/24 08:25:29;;;;;;;29.17;28.07;;;23.80;99.90;;;;;;5074516;28;20526;-55
2023/07/24 08:27:56;;;;;;;30.30;29.00;;;23.80;99.90;;;;;;5074294;28;20522;-55
2023/07/24 08:30:23;;;;;;;32.03;30.83;;;23.80;99.90;;;;;;5074618;28;20474;-54
2023/07/24 08:32:51;;;;;;;33.37;32.07;;;23.80;99.90;;;;;;5074493;28;20471;-57
2023/07/24 08:35:18;;;;;;;30.87;29.57;;;23.80;99.90;;;;;;5074438;28;20538;-55
2023/07/24 08:37:46;;;;;;;30.27;28.97;;;23.80;99.90;;;;;;5074047;28;20570;-53
2023/07/24 08:40:13;;;;;;;32.63;31.23;;;23.80;99.90;;;;;;5074406;28;20530;-56
2023/07/24 08:42:41;;;;;;;29.10;27.70;;;23.80;99.90;;;;;;5074201;28;20546;-57
2023/07/24 08:45:13;;;;;;;31.87;30.57;;;23.80;99.90;;;;;;5074188;28;20846;-57
2023/07/24 08:47:42;;;;;;;31.50;30.30;;;23.80;99.90;;;;;;5074024;28;20924;-54
2023/07/24 08:50:11;;;;;;;30.97;29.67;;;23.80;99.90;;;;;;5074131;28;20534;-56
2023/07/24 08:52:38;;;;;;;32.30;31.00;;;23.80;99.90;;;;;;5074103;28;20526;-52
2023/07/24 08:55:07;;;;;;;32.70;31.20;;;23.80;99.90;;;;;;5074116;28;20539;-55
2023/07/24 08:57:35;;;;;;;30.67;29.30;;;23.80;99.90;;;;;;5073730;28;20566;-57
2023/07/24 09:00:04;;;;;;;30.20;29.00;;;23.80;99.90;;;;;;5092465;22;20488;-60
2023/07/24 09:02:32;;;;;;;31.30;30.00;;;23.80;99.90;;;;;;5049790;28;20538;-61
2023/07/24 09:04:59;;;;;;;31.33;30.13;;;23.80;99.90;;;;;;5053992;28;20530;-60
2023/07/24 09:07:26;;;;;;;30.30;29.10;;;23.80;99.90;;;;;;5053662;28;20805;-59
2023/07/24 09:09:53;;;;;;;31.37;30.27;;;23.80;99.90;;;;;;5053578;28;20495;-61
2023/07/24 09:12:23;;;;;;;31.33;30.03;;;23.80;99.90;;;;;;5053598;28;20539;-59
2023/07/24 09:15:00;;;;;;;32.77;31.50;;;23.80;99.90;;;;;;5053625;28;20958;-59
2023/07/24 09:17:27;;;;;;;30.80;29.60;;;23.80;99.90;;;;;;5053341;28;20579;-59
2023/07/24 09:19:57;;;;;;;31.33;30.13;;;23.80;99.90;;;;;;5053557;28;20550;-60
2023/07/24 09:22:26;;;;;;;29.13;27.87;;;23.80;99.90;;;;;;5053713;28;20502;-59
2023/07/24 09:24:54;;;;;;;29.00;27.90;;;23.80;99.90;;;;;;5053512;28;20504;-62
2023/07/24 09:27:25;;;;;;;31.43;30.23;;;23.80;99.90;;;;;;5053244;28;20527;-59
2023/07/24 09:29:52;;;;;;;29.63;28.53;;;23.80;99.90;;;;;;5053305;28;20551;-60
2023/07/24 09:32:23;;;;;;;30.07;28.87;;;23.80;99.90;;;;;;5053409;28;20468;-59
2023/07/24 09:34:51;;;;;;;28.33;27.20;;;23.80;99.90;;;;;;5053310;28;20988;-61
2023/07/24 09:37:28;;;;;;;30.03;28.83;;;23.80;99.90;;;;;;5052940;28;20484;-59
2023/07/24 09:39:55;;;;;;;29.40;28.30;;;23.80;99.90;;;;;;5053174;28;20601;-61
2023/07/24 09:42:31;;;;;;;29.33;27.83;;;23.80;99.90;;;;;;5053221;28;20472;-60
2023/07/24 09:44:58;;;;;;;31.63;30.23;;;23.80;99.90;;;;;;5053071;28;20486;-60
2023/07/24 09:47:25;;;;;;;27.17;26.17;;;23.80;99.90;;;;;;5052857;28;20480;-61
2023/07/24 09:49:53;;;;;;;28.37;27.27;;;23.80;99.90;;;;;;5052879;28;20543;-59
2023/07/24 09:52:21;;;;;;;29.33;28.03;;;23.80;99.90;;;;;;5053050;28;20455;-61
2023/07/24 09:54:56;;;;;;;30.93;29.53;;;23.80;99.90;;;;;;5052951;28;20871;-61
2023/07/24 09:57:24;;;;;;;30.27;28.63;;;23.80;99.90;;;;;;5052496;28;20486;-58
2023/07/24 09:59:54;;;;;;;29.47;28.27;;;23.80;99.90;;;;;;5052507;28;20575;-59
2023/07/24 10:02:22;;;;;;;28.47;27.33;;;23.80;99.90;;;;;;5052901;28;20509;-62
2023/07/24 10:04:49;;;;;;;26.83;25.80;;;23.80;99.90;;;;;;5052684;28;20483;-61
2023/07/24 10:07:16;;;;;;;29.13;27.83;;;23.80;99.90;;;;;;5052413;28;20482;-60
2023/07/24 10:09:44;;;;;;;28.27;27.10;;;23.90;99.90;;;;;;5052678;28;20522;-62
2023/07/24 10:12:11;;;;;;;28.03;26.83;;;23.90;99.90;;;;;;5052441;28;20441;-59
2023/07/24 10:14:39;;;;;;;28.60;27.20;;;23.80;99.90;;;;;;5052554;28;20527;-60
2023/07/24 10:17:07;;;;;;;27.03;25.93;;;23.80;99.90;;;;;;5052300;28;20519;-60
2023/07/24 10:19:40;;;;;;;28.97;27.77;;;23.80;99.90;;;;;;5052434;28;20547;-60
2023/07/24 10:22:07;;;;;;;28.90;27.60;;;23.90;99.90;;;;;;5052420;28;20455;-62
2023/07/24 10:24:34;;;;;;;28.70;27.60;;;23.80;99.90;;;;;;5051932;28;20555;-59
2023/07/24 10:27:04;;;;;;;30.23;28.83;;;23.80;99.90;;;;;;5052108;28;20532;-60
2023/07/24 10:29:35;;;;;;;26.97;25.87;;;23.90;99.90;;;;;;5052211;28;20499;-61
2023/07/24 10:32:02;;;;;;;27.60;26.40;;;23.90;99.90;;;;;;5052249;28;20441;-61
2023/07/24 10:34:39;;;;;;;28.03;26.73;;;23.90;99.90;;;;;;5052311;28;20475;-62
2023/07/24 10:37:09;;;;;;;27.90;26.80;;;23.90;99.90;;;;;;5051882;28;20484;-62
2023/07/24 10:39:40;;;;;;;29.17;27.97;;;23.90;99.90;;;;;;5051991;28;20496;-60
2023/07/24 10:42:09;;;;;;;30.03;28.83;;;23.90;99.90;;;;;;5052101;28;21187;-59
2023/07/24 10:44:36;;;;;;;29.37;28.17;;;23.90;99.90;;;;;;5052004;28;20447;-60
2023/07/24 10:47:03;;;;;;;27.67;26.43;;;23.90;99.90;;;;;;5051798;28;20444;-59
2023/07/24 10:49:30;;;;;;;27.80;26.60;;;23.90;99.90;;;;;;5051836;28;20908;-62
2023/07/24 10:51:59;;;;;;;27.57;26.37;;;23.90;99.90;;;;;;5052147;28;20559;-59
2023/07/24 10:54:26;;;;;;;29.73;28.57;;;23.90;99.90;;;;;;5051823;28;20495;-62
2023/07/24 10:56:59;;;;;;;29.23;28.03;;;23.90;99.90;;;;;;5051510;28;20519;-60
2023/07/24 10:59:37;;;;;;;30.00;28.80;;;23.90;99.90;;;;;;5051697;28;20948;-60
2023/07/24 11:02:05;;;;;;;27.03;26.03;;;23.90;99.90;;;;;;5051790;28;20526;-62
2023/07/24 11:04:33;;;;;;;27.53;26.33;;;23.90;99.90;;;;;;5051765;28;20523;-62
2023/07/24 11:07:01;;;;;;;28.03;26.83;;;23.90;99.90;;;;;;5051634;28;20802;-62
2023/07/24 11:09:36;;;;;;;28.10;27.00;;;23.90;99.90;;;;;;5051566;28;20898;-62
2023/07/24 11:12:11;;;;;;;26.63;25.63;;;23.90;99.90;;;;;;5051694;28;20447;-59
2023/07/24 11:14:50;;;;;;;26.83;25.83;;;23.90;99.90;;;;;;5051755;28;20514;-60
2023/07/24 11:17:17;;;;;;;27.90;26.90;;;23.90;99.90;;;;;;5051383;28;20567;-60
2023/07/24 11:19:44;;;;;;;27.17;26.17;;;23.90;99.90;;;;;;5051675;28;20783;-62
2023/07/24 11:22:12;;;;;;;27.77;26.67;;;23.90;99.90;;;;;;5051489;28;20941;-60
2023/07/24 11:24:47;;;;;;;29.47;28.17;;;23.90;99.90;;;;;;5051548;28;20534;-59
2023/07/24 11:27:15;;;;;;;28.50;27.20;;;23.90;99.90;;;;;;5051298;28;20485;-61
2023/07/24 11:29:47;;;;;;;27.10;26.00;;;23.90;99.90;;;;;;5051310;28;20468;-61
2023/07/24 11:32:17;;;;;;;26.27;25.27;;;23.90;99.90;;;;;;5051399;28;20480;-60
2023/07/24 11:34:45;;;;;;;26.20;25.20;;;23.90;99.90;;;;;;5051510;28;20690;-60
2023/07/24 11:37:13;;;;;;;26.03;24.93;;;23.90;99.90;;;;;;5053943;28;20806;-58
2023/07/24 11:39:40;;;;;;;28.60;27.50;;;23.90;99.90;;;;;;5055405;28;20464;-60
2023/07/24 11:42:08;;;;;;;27.17;25.87;;;23.90;99.90;;;;;;5055438;28;20531;-62
2023/07/24 11:44:35;;;;;;;27.50;26.37;;;23.90;99.90;;;;;;5055596;28;20479;-62
2023/07/24 11:47:03;;;;;;;26.60;25.60;;;23.90;99.90;;;;;;5055332;28;20476;-58
2023/07/24 11:49:31;;;;;;;29.90;28.30;;;23.80;99.90;;;;;;5055363;28;20829;-59
2023/07/24 11:52:02;;;;;;;28.37;27.27;;;23.80;99.90;;;;;;5055354;28;20552;-61
2023/07/24 11:54:30;;;;;;;30.77;29.60;;;23.80;99.90;;;;;;5055381;28;20805;-59
2023/07/24 11:56:57;;;;;;;30.90;29.40;;;23.80;99.90;;;;;;5055014;28;20538;-62
2023/07/24 11:59:25;;;;;;;27.30;26.20;;;23.80;99.90;;;;;;5054859;28;20487;-61
2023/07/24 12:01:52;;;;;;;27.73;26.63;;;23.80;99.90;;;;;;5055244;28;20881;-60
2023/07/24 12:04:20;;;;;;;26.67;25.67;;;23.80;99.90;;;;;;5055051;28;20871;-60
2023/07/24 12:06:47;;;;;;;26.90;25.80;;;23.80;99.90;;;;;;5054840;28;20500;-60
2023/07/24 12:09:14;;;;;;;27.97;26.60;;;23.80;99.90;;;;;;5054776;28;20471;-61
2023/07/24 12:11:43;;;;;;;28.50;27.30;;;23.80;99.90;;;;;;5054880;28;20535;-63
2023/07/24 12:14:10;;;;;;;26.60;25.60;;;23.80;99.90;;;;;;5054799;28;20475;-60
2023/07/24 12:16:37;;;;;;;27.70;26.60;;;23.80;99.90;;;;;;5054730;28;20471;-60
2023/07/24 12:19:04;;;;;;;27.43;26.23;;;23.80;99.90;;;;;;5054539;28;20523;-62
2023/07/24 12:21:31;;;;;;;26.23;25.13;;;23.90;99.90;;;;;;5054724;28;20937;-59
2023/07/24 12:23:58;;;;;;;26.30;25.27;;;23.80;99.90;;;;;;5054655;28;20534;-62
2023/07/24 12:26:27;;;;;;;26.93;25.77;;;23.80;99.90;;;;;;5054585;28;20535;-60
2023/07/24 12:28:55;;;;;;;25.40;24.40;;;23.80;99.90;;;;;;5054669;28;20504;-62
2023/07/24 12:31:22;;;;;;;27.67;26.50;;;23.80;99.90;;;;;;5054612;28;20444;-62